createdAt,value
2022-11-26T00:02:26.543Z,88.04
2022-11-26T00:04:56.756Z,87.96
2022-11-26T00:07:29.326Z,87.87
2022-11-26T00:09:59.698Z,87.90
2022-11-26T00:12:32.163Z,87.90
2022-11-26T00:15:11.213Z,87.72
2022-11-26T00:17:38.999Z,87.59
2022-11-26T00:20:08.102Z,87.59
2022-11-26T00:22:41.949Z,87.63
2022-11-26T00:25:26.399Z,87.64
2022-11-26T00:27:58.253Z,87.69
2022-11-26T00:30:28.442Z,87.76
2022-11-26T00:32:56.372Z,87.85
2022-11-26T00:35:25.273Z,87.87
2022-11-26T00:37:57.219Z,87.89
2022-11-26T00:40:28.280Z,87.91
2022-11-26T00:43:01.669Z,87.96
2022-11-26T00:45:31.548Z,88.07
2022-11-26T00:48:01.956Z,88.05
2022-11-26T00:50:37.698Z,88.10
2022-11-26T00:53:08.315Z,88.12
2022-11-26T00:55:40.356Z,88.17
2022-11-26T00:58:21.825Z,88.13
2022-11-26T01:00:49.704Z,88.20
2022-11-26T01:03:18.775Z,88.20
2022-11-26T01:05:53.194Z,88.27
2022-11-26T01:08:27.579Z,88.18
2022-11-26T01:10:55.512Z,88.10
2022-11-26T01:13:24.312Z,87.99
2022-11-26T01:15:56.377Z,87.98
2022-11-26T01:18:25.162Z,88.04
2022-11-26T01:20:52.921Z,88.05
2022-11-26T01:23:20.990Z,88.00
2022-11-26T01:25:48.802Z,87.97
2022-11-26T01:28:20.045Z,87.95
2022-11-26T01:30:47.836Z,88.04
2022-11-26T01:33:15.793Z,88.09
2022-11-26T01:35:44.296Z,88.06
2022-11-26T01:38:16.294Z,88.11
2022-11-26T01:40:56.224Z,88.13
2022-11-26T01:43:33.683Z,88.17
2022-11-26T01:46:02.093Z,88.20
2022-11-26T01:48:34.468Z,88.21
2022-11-26T01:51:04.226Z,88.19
2022-11-26T01:53:46.250Z,88.16
2022-11-26T01:56:24.938Z,88.18
2022-11-26T01:58:59.033Z,88.21
2022-11-26T02:01:30.312Z,88.18
2022-11-26T02:04:14.380Z,88.16
2022-11-26T02:06:43.786Z,88.04
2022-11-26T02:09:13.169Z,88.01
2022-11-26T02:11:41.960Z,87.95
2022-11-26T02:14:24.150Z,87.94
2022-11-26T02:17:26.040Z,87.98
2022-11-26T02:20:17.992Z,88.06
2022-11-26T02:22:55.036Z,88.06
2022-11-26T02:25:51.047Z,88.08
2022-11-26T02:28:50.553Z,88.05
2022-11-26T02:31:44.183Z,88.04
2022-11-26T02:34:38.014Z,88.03
2022-11-26T02:37:13.283Z,88.00
2022-11-26T02:39:41.337Z,87.99
2022-11-26T02:42:31.107Z,88.00
2022-11-26T02:45:06.139Z,87.95
2022-11-26T02:47:38.095Z,87.94
2022-11-26T02:50:12.589Z,87.90
2022-11-26T02:52:43.262Z,87.83
2022-11-26T02:55:15.649Z,87.83
2022-11-26T02:57:49.118Z,87.83
2022-11-26T03:00:18.127Z,87.83
2022-11-26T03:03:02.330Z,87.80
2022-11-26T03:05:37.189Z,87.77
2022-11-26T03:08:07.514Z,87.73
2022-11-26T03:10:35.972Z,87.69
2022-11-26T03:13:03.785Z,87.66
2022-11-26T03:15:31.542Z,87.63
2022-11-26T03:17:59.304Z,87.58
2022-11-26T03:20:27.060Z,87.52
2022-11-26T03:22:54.953Z,87.47
2022-11-26T03:25:23.456Z,87.41
2022-11-26T03:27:51.189Z,87.36
2022-11-26T03:30:19.117Z,87.31
2022-11-26T03:32:47.088Z,87.26
2022-11-26T03:35:14.817Z,87.22
2022-11-26T03:37:42.643Z,87.16
2022-11-26T03:40:11.312Z,87.12
2022-11-26T03:42:39.326Z,87.06
2022-11-26T03:45:08.297Z,87.00
2022-11-26T03:47:36.301Z,86.94
2022-11-26T03:50:06.871Z,86.89
2022-11-26T03:52:34.652Z,86.84
2022-11-26T03:55:02.484Z,86.80
2022-11-26T03:57:30.455Z,86.75
2022-11-26T03:59:58.220Z,86.69
2022-11-26T04:02:25.946Z,86.65
2022-11-26T04:04:55.199Z,86.59
2022-11-26T04:07:23.041Z,86.57
2022-11-26T04:09:51.410Z,86.52
2022-11-26T04:12:19.189Z,86.49
2022-11-26T04:14:46.918Z,86.46
2022-11-26T04:17:14.644Z,86.45
2022-11-26T04:19:42.635Z,86.43
2022-11-26T04:22:10.475Z,86.39
2022-11-26T04:24:38.442Z,86.39
2022-11-26T04:27:06.856Z,86.32
2022-11-26T04:29:36.963Z,86.29
2022-11-26T04:32:06.049Z,86.26
2022-11-26T04:34:34.264Z,86.22
2022-11-26T04:37:02.127Z,86.23
2022-11-26T04:39:29.952Z,86.19
2022-11-26T04:41:57.751Z,86.14
2022-11-26T04:44:27.625Z,86.11
2022-11-26T04:46:55.853Z,86.08
2022-11-26T04:49:23.682Z,86.07
2022-11-26T04:51:51.666Z,86.03
2022-11-26T04:54:19.612Z,85.99
2022-11-26T04:56:47.576Z,85.96
2022-11-26T04:59:16.134Z,85.93
2022-11-26T05:01:44.015Z,85.87
2022-11-26T05:04:11.831Z,85.84
2022-11-26T05:06:39.570Z,85.81
2022-11-26T05:09:07.303Z,85.75
2022-11-26T05:11:35.027Z,85.75
2022-11-26T05:14:02.814Z,85.67
2022-11-26T05:16:30.663Z,85.60
2022-11-26T05:18:58.465Z,85.54
2022-11-26T05:21:26.235Z,85.50
2022-11-26T05:23:53.963Z,85.48
2022-11-26T05:26:21.713Z,85.45
2022-11-26T05:28:49.509Z,85.41
2022-11-26T05:31:18.225Z,85.40
2022-11-26T05:33:46.302Z,85.38
2022-11-26T05:36:14.954Z,85.37
2022-11-26T05:38:42.982Z,85.35
2022-11-26T05:41:10.962Z,85.33
2022-11-26T05:43:39.379Z,85.32
2022-11-26T05:46:10.381Z,85.32
2022-11-26T05:48:38.647Z,85.32
2022-11-26T05:51:06.497Z,85.34
2022-11-26T05:53:35.438Z,85.34
2022-11-26T05:56:03.270Z,85.35
2022-11-26T05:58:31.158Z,85.38
2022-11-26T06:00:59.110Z,85.40
2022-11-26T06:03:28.453Z,85.39
2022-11-26T06:05:57.552Z,85.38
2022-11-26T06:08:25.316Z,85.39
2022-11-26T06:10:53.342Z,85.38
2022-11-26T06:13:21.133Z,85.37
2022-11-26T06:15:48.871Z,85.33
2022-11-26T06:18:18.705Z,85.32
2022-11-26T06:20:46.456Z,85.30
2022-11-26T06:23:14.997Z,85.30
2022-11-26T06:25:44.654Z,85.29
2022-11-26T06:28:12.666Z,85.28
2022-11-26T06:30:40.619Z,85.26
2022-11-26T06:33:09.991Z,85.25
2022-11-26T06:35:37.930Z,85.23
2022-11-26T06:38:06.271Z,85.24
2022-11-26T06:40:34.047Z,85.25
2022-11-26T06:43:01.901Z,85.23
2022-11-26T06:45:29.629Z,85.21
2022-11-26T06:47:57.433Z,85.19
2022-11-26T06:50:25.225Z,85.18
2022-11-26T06:52:55.036Z,85.19
2022-11-26T06:55:23.627Z,85.19
2022-11-26T06:57:53.056Z,85.17
2022-11-26T07:00:23.331Z,85.14
2022-11-26T07:02:51.181Z,85.11
2022-11-26T07:05:19.120Z,85.09
2022-11-26T07:07:46.917Z,85.07
2022-11-26T07:10:14.723Z,85.08
2022-11-26T07:12:42.499Z,85.06
2022-11-26T07:15:10.692Z,85.04
2022-11-26T07:17:38.598Z,85.01
2022-11-26T07:20:07.085Z,85.00
2022-11-26T07:22:36.265Z,84.98
2022-11-26T07:25:12.147Z,84.94
2022-11-26T07:27:41.795Z,84.89
2022-11-26T07:30:12.015Z,84.89
2022-11-26T07:32:39.915Z,84.85
2022-11-26T07:35:07.778Z,84.82
2022-11-26T07:37:35.640Z,84.85
2022-11-26T07:40:06.713Z,84.80
2022-11-26T07:42:36.069Z,84.75
2022-11-26T07:45:04.781Z,84.73
2022-11-26T07:47:32.650Z,84.68
2022-11-26T07:50:00.553Z,84.65
2022-11-26T07:52:28.331Z,84.66
2022-11-26T07:54:56.181Z,84.62
2022-11-26T07:57:26.344Z,84.60
2022-11-26T07:59:54.154Z,84.63
2022-11-26T08:02:21.984Z,84.58
2022-11-26T08:04:50.077Z,84.52
2022-11-26T08:07:24.334Z,84.53
2022-11-26T08:09:57.620Z,84.50
2022-11-26T08:12:25.536Z,84.50
2022-11-26T08:14:53.312Z,84.48
2022-11-26T08:17:21.074Z,84.47
2022-11-26T08:19:48.810Z,84.46
2022-11-26T08:22:16.566Z,84.43
2022-11-26T08:24:45.633Z,84.42
2022-11-26T08:27:16.521Z,84.41
2022-11-26T08:29:44.574Z,84.39
2022-11-26T08:32:12.332Z,84.37
2022-11-26T08:34:40.432Z,84.35
2022-11-26T08:37:09.845Z,84.30
2022-11-26T08:39:37.687Z,84.23
2022-11-26T08:42:05.522Z,84.21
2022-11-26T08:44:33.289Z,84.12
2022-11-26T08:47:01.049Z,84.03
2022-11-26T08:49:28.809Z,83.97
2022-11-26T08:51:58.146Z,83.92
2022-11-26T08:54:25.942Z,83.82
2022-11-26T08:56:56.072Z,83.68
2022-11-26T08:59:24.778Z,83.70
2022-11-26T09:01:52.791Z,83.63
2022-11-26T09:04:20.693Z,83.61
2022-11-26T09:06:48.719Z,83.47
2022-11-26T09:09:19.126Z,83.26
2022-11-26T09:11:58.018Z,83.17
2022-11-26T09:14:30.758Z,83.05
2022-11-26T09:16:58.713Z,82.98
2022-11-26T09:19:28.597Z,82.86
2022-11-26T09:21:56.636Z,82.72
2022-11-26T09:24:27.290Z,82.57
2022-11-26T09:26:55.173Z,82.45
2022-11-26T09:29:24.783Z,82.34
2022-11-26T09:32:21.945Z,82.25
2022-11-26T09:34:42.583Z,82.09
2022-11-26T09:37:11.799Z,82.17
2022-11-26T09:39:41.251Z,82.04
2022-11-26T09:42:30.394Z,82.11
2022-11-26T09:45:12.553Z,81.91
2022-11-26T09:47:52.424Z,81.85
2022-11-26T09:50:35.461Z,81.87
2022-11-26T09:53:32.009Z,81.93
2022-11-26T09:56:03.955Z,81.95
2022-11-26T09:59:04.899Z,81.93
2022-11-26T10:01:34.766Z,81.78
2022-11-26T10:04:10.370Z,81.76
2022-11-26T10:06:40.970Z,81.66
2022-11-26T10:09:25.667Z,81.64
2022-11-26T10:12:24.667Z,81.59
2022-11-26T10:15:19.784Z,81.62
2022-11-26T10:17:58.510Z,81.52
2022-11-26T10:20:52.684Z,81.55
2022-11-26T10:23:20.342Z,81.62
2022-11-26T10:25:55.345Z,81.68
2022-11-26T10:28:44.795Z,81.47
2022-11-26T10:31:27.048Z,81.29
2022-11-26T10:34:05.141Z,81.23
2022-11-26T10:36:41.912Z,81.20
2022-11-26T10:39:16.180Z,81.13
2022-11-26T10:41:45.311Z,81.08
2022-11-26T10:44:41.888Z,80.86
2022-11-26T10:47:32.975Z,80.83
2022-11-26T10:50:19.187Z,80.86
2022-11-26T10:52:53.611Z,80.78
2022-11-26T10:55:33.598Z,80.68
2022-11-26T10:58:05.900Z,80.60
2022-11-26T11:00:50.128Z,80.58
2022-11-26T11:03:33.221Z,80.39
2022-11-26T11:06:25.428Z,80.37
2022-11-26T11:08:56.691Z,80.33
2022-11-26T11:11:28.626Z,80.29
2022-11-26T11:13:58.227Z,80.40
2022-11-26T11:16:38.443Z,80.43
2022-11-26T11:19:21.905Z,80.33
2022-11-26T11:21:51.546Z,80.36
2022-11-26T11:24:27.288Z,80.31
2022-11-26T11:27:00.423Z,80.36
2022-11-26T11:29:39.295Z,80.30
2022-11-26T11:32:34.711Z,80.20
2022-11-26T11:35:19.964Z,80.19
2022-11-26T11:37:51.937Z,80.25
2022-11-26T11:40:25.558Z,80.35
2022-11-26T11:43:03.052Z,80.29
2022-11-26T11:45:40.156Z,80.35
2022-11-26T11:48:26.096Z,80.38
2022-11-26T11:51:26.333Z,80.21
2022-11-26T11:54:07.793Z,80.02
2022-11-26T11:56:45.425Z,80.08
2022-11-26T11:59:59.494Z,80.15
2022-11-26T12:02:57.964Z,80.15
2022-11-26T12:05:50.115Z,80.12
2022-11-26T12:08:51.964Z,80.14
2022-11-26T12:11:37.882Z,80.07
2022-11-26T12:14:22.151Z,80.25
2022-11-26T12:16:56.951Z,80.23
2022-11-26T12:19:48.873Z,80.18
2022-11-26T12:22:30.109Z,80.17
2022-11-26T12:25:37.288Z,80.14
2022-11-26T12:28:36.736Z,80.17
2022-11-26T12:31:30.364Z,80.19
2022-11-26T12:34:14.128Z,80.26
2022-11-26T12:36:54.320Z,80.32
2022-11-26T12:39:58.466Z,80.29
2022-11-26T12:42:45.933Z,80.34
2022-11-26T12:45:30.889Z,80.33
2022-11-26T12:48:08.309Z,80.27
2022-11-26T12:50:50.160Z,80.25
2022-11-26T12:53:43.611Z,80.16
2022-11-26T12:56:52.300Z,80.15
2022-11-26T12:59:32.418Z,80.15
2022-11-26T13:02:18.436Z,80.17
2022-11-26T13:04:46.586Z,80.19
2022-11-26T13:07:33.303Z,80.25
2022-11-26T13:10:19.955Z,80.23
2022-11-26T13:13:03.980Z,80.26
2022-11-26T13:15:47.468Z,80.28
2022-11-26T13:18:28.033Z,80.30
2022-11-26T13:21:09.327Z,80.38
2022-11-26T13:24:01.633Z,80.41
2022-11-26T13:26:51.237Z,80.41
2022-11-26T13:29:56.363Z,80.43
2022-11-26T13:32:39.168Z,80.49
2022-11-26T13:35:37.414Z,80.48
2022-11-26T13:38:27.167Z,80.50
2022-11-26T13:41:41.777Z,80.51
2022-11-26T13:44:21.539Z,80.54
2022-11-26T13:47:00.566Z,80.61
2022-11-26T13:49:45.837Z,80.64
2022-11-26T13:52:33.759Z,80.70
2022-11-26T13:55:36.560Z,80.74
2022-11-26T13:58:14.600Z,80.79
2022-11-26T14:00:44.943Z,80.85
2022-11-26T14:03:48.609Z,80.87
2022-11-26T14:06:16.430Z,80.94
2022-11-26T14:08:49.367Z,80.99
2022-11-26T14:11:55.736Z,81.05
2022-11-26T14:14:26.530Z,81.11
2022-11-26T14:17:16.279Z,81.10
2022-11-26T14:19:44.322Z,81.13
2022-11-26T14:22:21.303Z,81.02
2022-11-26T14:24:51.701Z,81.01
2022-11-26T14:27:29.368Z,80.98
2022-11-26T14:30:06.240Z,80.90
2022-11-26T14:32:59.673Z,80.85
2022-11-26T14:35:35.611Z,80.76
2022-11-26T14:38:07.588Z,80.72
2022-11-26T14:40:38.662Z,80.69
2022-11-26T14:43:23.714Z,80.69
2022-11-26T14:46:21.249Z,80.67
2022-11-26T14:48:52.053Z,80.66
2022-11-26T14:51:26.282Z,80.61
2022-11-26T14:53:56.940Z,80.61
2022-11-26T14:56:26.892Z,80.64
2022-11-26T14:59:00.679Z,80.68
2022-11-26T15:01:32.555Z,80.69
2022-11-26T15:04:05.203Z,80.73
2022-11-26T15:06:38.837Z,80.77
2022-11-26T15:09:18.235Z,80.79
2022-11-26T15:11:58.820Z,80.82
2022-11-26T15:14:41.236Z,80.83
2022-11-26T15:17:15.908Z,80.90
2022-11-26T15:19:43.926Z,80.96
2022-11-26T15:22:39.466Z,81.00
2022-11-26T15:25:28.571Z,81.09
2022-11-26T15:28:07.478Z,81.07
2022-11-26T15:30:38.303Z,81.10
2022-11-26T15:33:09.196Z,81.15
2022-11-26T15:35:40.187Z,81.20
2022-11-26T15:38:19.993Z,81.30
2022-11-26T15:40:57.037Z,81.34
2022-11-26T15:43:29.546Z,81.45
2022-11-26T15:46:12.288Z,81.49
2022-11-26T15:48:58.547Z,81.56
2022-11-26T15:51:44.845Z,81.66
2022-11-26T15:54:30.837Z,81.73
2022-11-26T15:57:31.475Z,81.76
2022-11-26T16:00:26.868Z,81.81
2022-11-26T16:02:54.885Z,81.90
2022-11-26T16:05:35.129Z,81.96
2022-11-26T16:08:26.019Z,81.99
2022-11-26T16:11:02.897Z,82.05
2022-11-26T16:13:33.640Z,82.09
2022-11-26T16:16:17.514Z,82.10
2022-11-26T16:18:55.498Z,82.15
2022-11-26T16:21:32.965Z,82.18
2022-11-26T16:24:08.381Z,82.21
2022-11-26T16:27:06.363Z,82.22
2022-11-26T16:29:36.238Z,82.26
2022-11-26T16:32:05.781Z,82.28
2022-11-26T16:34:33.595Z,82.30
2022-11-26T16:37:17.671Z,82.29
2022-11-26T16:39:47.793Z,82.32
2022-11-26T16:42:24.158Z,82.35
2022-11-26T16:44:54.567Z,82.37
2022-11-26T16:47:29.040Z,82.40
2022-11-26T16:49:57.211Z,82.44
2022-11-26T16:52:26.477Z,82.45
2022-11-26T16:55:00.931Z,82.46
2022-11-26T16:57:28.710Z,82.46
2022-11-26T17:00:04.893Z,82.47
2022-11-26T17:02:34.931Z,82.48
2022-11-26T17:05:06.202Z,82.46
2022-11-26T17:07:40.319Z,82.46
2022-11-26T17:10:15.974Z,82.45
2022-11-26T17:12:45.850Z,82.44
2022-11-26T17:15:13.760Z,82.43
2022-11-26T17:17:43.335Z,82.44
2022-11-26T17:20:26.850Z,82.44
2022-11-26T17:22:54.622Z,82.46
2022-11-26T17:25:22.391Z,82.44
2022-11-26T17:27:50.162Z,82.46
2022-11-26T17:30:21.733Z,82.48
2022-11-26T17:32:51.147Z,82.53
2022-11-26T17:35:18.973Z,82.56
2022-11-26T17:37:46.980Z,82.61
2022-11-26T17:40:23.557Z,82.65
2022-11-26T17:42:51.385Z,82.68
2022-11-26T17:45:21.372Z,82.70
2022-11-26T17:47:50.761Z,82.76
2022-11-26T17:50:30.978Z,82.84
2022-11-26T17:52:58.779Z,82.94
2022-11-26T17:55:28.501Z,83.01
2022-11-26T17:57:58.080Z,83.11
2022-11-26T18:00:29.389Z,83.21
2022-11-26T18:03:00.467Z,83.24
2022-11-26T18:05:30.186Z,83.38
2022-11-26T18:07:59.509Z,83.39
2022-11-26T18:10:30.013Z,83.52
2022-11-26T18:12:59.915Z,83.63
2022-11-26T18:15:27.718Z,83.71
2022-11-26T18:17:57.148Z,83.84
2022-11-26T18:20:28.954Z,83.94
2022-11-26T18:23:00.713Z,83.98
2022-11-26T18:25:35.014Z,84.10
2022-11-26T18:28:02.807Z,84.22
2022-11-26T18:30:30.724Z,84.22
2022-11-26T18:32:58.604Z,84.24
2022-11-26T18:35:26.392Z,84.31
2022-11-26T18:37:54.231Z,84.28
2022-11-26T18:40:22.091Z,84.38
2022-11-26T18:42:54.469Z,84.35
2022-11-26T18:45:22.295Z,84.44
2022-11-26T18:47:54.207Z,84.59
2022-11-26T18:50:21.949Z,84.68
2022-11-26T18:52:49.706Z,84.81
2022-11-26T18:55:17.806Z,84.86
2022-11-26T18:57:45.864Z,85.06
2022-11-26T19:00:14.265Z,85.08
2022-11-26T19:02:42.068Z,85.20
2022-11-26T19:05:10.044Z,85.29
2022-11-26T19:07:37.826Z,85.30
2022-11-26T19:10:07.877Z,85.36
2022-11-26T19:12:35.703Z,85.48
2022-11-26T19:15:03.859Z,85.43
2022-11-26T19:17:31.808Z,85.39
2022-11-26T19:19:59.644Z,85.48
2022-11-26T19:22:28.840Z,85.66
2022-11-26T19:24:56.604Z,85.84
2022-11-26T19:27:24.399Z,85.92
2022-11-26T19:29:53.818Z,85.94
2022-11-26T19:32:21.643Z,86.15
2022-11-26T19:34:49.438Z,86.22
2022-11-26T19:37:17.347Z,86.24
2022-11-26T19:39:45.143Z,86.23
2022-11-26T19:42:13.103Z,86.20
2022-11-26T19:44:40.957Z,86.23
2022-11-26T19:47:08.740Z,86.26
2022-11-26T19:49:36.737Z,86.34
2022-11-26T19:52:05.012Z,86.37
2022-11-26T19:54:34.629Z,86.28
2022-11-26T19:57:02.669Z,86.17
2022-11-26T19:59:33.755Z,86.06
2022-11-26T20:02:01.920Z,85.99
2022-11-26T20:04:31.489Z,85.92
2022-11-26T20:06:59.253Z,85.88
2022-11-26T20:09:27.194Z,85.80
2022-11-26T20:11:54.949Z,85.79
2022-11-26T20:14:22.923Z,85.86
2022-11-26T20:16:50.777Z,85.94
2022-11-26T20:19:19.484Z,86.02
2022-11-26T20:21:51.434Z,86.08
2022-11-26T20:24:19.416Z,86.12
2022-11-26T20:26:49.102Z,86.12
2022-11-26T20:29:20.197Z,86.18
2022-11-26T20:31:50.594Z,86.27
2022-11-26T20:34:23.504Z,86.30
2022-11-26T20:36:55.878Z,86.40
2022-11-26T20:39:26.306Z,86.43
2022-11-26T20:41:54.106Z,86.43
2022-11-26T20:44:25.499Z,86.39
2022-11-26T20:46:53.408Z,86.32
2022-11-26T20:49:23.721Z,86.22
2022-11-26T20:51:51.635Z,86.17
2022-11-26T20:54:19.356Z,86.11
2022-11-26T20:56:47.192Z,86.10
2022-11-26T20:59:17.409Z,86.06
2022-11-26T21:01:45.464Z,86.03
2022-11-26T21:04:13.291Z,86.02
2022-11-26T21:06:45.863Z,86.04
2022-11-26T21:09:16.631Z,86.06
2022-11-26T21:11:44.709Z,86.07
2022-11-26T21:14:15.195Z,86.11
2022-11-26T21:16:45.028Z,86.10
2022-11-26T21:19:20.556Z,86.14
2022-11-26T21:21:48.638Z,86.16
2022-11-26T21:24:19.862Z,86.19
2022-11-26T21:26:47.941Z,86.20
2022-11-26T21:29:16.054Z,86.21
2022-11-26T21:31:43.905Z,86.21
2022-11-26T21:34:11.646Z,86.27
2022-11-26T21:36:39.462Z,86.32
2022-11-26T21:39:08.363Z,86.35
2022-11-26T21:41:41.582Z,86.38
2022-11-26T21:44:10.991Z,86.37
2022-11-26T21:46:43.102Z,86.37
2022-11-26T21:49:11.349Z,86.33
2022-11-26T21:51:43.429Z,86.34
2022-11-26T21:54:13.470Z,86.26
2022-11-26T21:56:41.292Z,86.23
2022-11-26T21:59:12.405Z,86.19
2022-11-26T22:01:45.402Z,86.16
2022-11-26T22:04:19.269Z,86.15
2022-11-26T22:06:51.233Z,86.14
2022-11-26T22:09:19.035Z,86.08
2022-11-26T22:11:47.108Z,86.07
2022-11-26T22:14:20.079Z,86.03
2022-11-26T22:16:52.758Z,86.00
2022-11-26T22:19:20.912Z,85.98
2022-11-26T22:21:48.741Z,85.93
2022-11-26T22:24:20.727Z,85.90
2022-11-26T22:26:50.624Z,85.86
2022-11-26T22:29:22.735Z,85.85
2022-11-26T22:31:50.736Z,85.83
2022-11-26T22:34:28.156Z,85.79
2022-11-26T22:36:56.266Z,85.79
2022-11-26T22:39:24.338Z,85.73
2022-11-26T22:41:52.269Z,85.67
2022-11-26T22:44:20.253Z,85.56
2022-11-26T22:46:48.116Z,85.50
2022-11-26T22:49:20.287Z,85.46
2022-11-26T22:51:51.550Z,85.47
2022-11-26T22:54:19.440Z,85.46
2022-11-26T22:56:47.245Z,85.44
2022-11-26T22:59:15.217Z,85.46
2022-11-26T23:01:43.023Z,85.53
2022-11-26T23:04:14.642Z,85.56
2022-11-26T23:06:42.432Z,85.54
2022-11-26T23:09:14.741Z,85.59
2022-11-26T23:11:46.301Z,85.64
2022-11-26T23:14:14.239Z,85.65
2022-11-26T23:16:46.158Z,85.66
2022-11-26T23:19:18.347Z,85.73
2022-11-26T23:21:48.646Z,85.71
2022-11-26T23:24:19.807Z,85.76
2022-11-26T23:26:47.669Z,85.81
2022-11-26T23:29:15.756Z,85.83
2022-11-26T23:31:50.748Z,85.80
2022-11-26T23:34:18.538Z,85.79
2022-11-26T23:36:46.446Z,85.78
2022-11-26T23:39:14.304Z,85.76
2022-11-26T23:41:43.259Z,85.73
2022-11-26T23:44:11.054Z,85.71
2022-11-26T23:46:38.936Z,85.66
2022-11-26T23:49:10.732Z,85.62
2022-11-26T23:51:38.468Z,85.60
2022-11-26T23:54:06.249Z,85.63
2022-11-26T23:56:37.741Z,85.67
2022-11-26T23:59:09.148Z,85.71
